sensor_id;sensor_type;location;lat;lon;timestamp;pressure;altitude;pressure_sealevel;temperature;humidity
43818;BME280;29868;47.360;18.984;2022-10-13T00:01:37;101140.50;;;8.66;100.00
43818;BME280;29868;47.360;18.984;2022-10-13T00:04:02;101140.28;;;8.60;100.00
43818;BME280;29868;47.360;18.984;2022-10-13T00:06:27;101133.81;;;8.48;100.00
43818;BME280;29868;47.360;18.984;2022-10-13T00:08:53;101129.38;;;8.44;100.00
43818;BME280;29868;47.360;18.984;2022-10-13T00:11:24;101133.56;;;8.41;100.00
43818;BME280;29868;47.360;18.984;2022-10-13T00:13:50;101137.84;;;8.40;100.00
43818;BME280;29868;47.360;18.984;2022-10-13T00:16:19;101138.81;;;8.42;100.00
43818;BME280;29868;47.360;18.984;2022-10-13T00:18:45;101142.28;;;8.43;100.00
43818;BME280;29868;47.360;18.984;2022-10-13T00:21:14;101140.56;;;8.43;100.00
43818;BME280;29868;47.360;18.984;2022-10-13T00:23:40;101144.91;;;8.44;100.00
43818;BME280;29868;47.360;18.984;2022-10-13T00:26:07;101135.34;;;8.42;100.00
43818;BME280;29868;47.360;18.984;2022-10-13T00:28:33;101138.72;;;8.41;100.00
43818;BME280;29868;47.360;18.984;2022-10-13T00:30:59;101143.31;;;8.48;100.00
43818;BME280;29868;47.360;18.984;2022-10-13T00:33:24;101140.06;;;8.53;100.00
43818;BME280;29868;47.360;18.984;2022-10-13T00:35:50;101132.59;;;8.61;100.00
43818;BME280;29868;47.360;18.984;2022-10-13T00:38:17;101143.81;;;8.62;100.00
43818;BME280;29868;47.360;18.984;2022-10-13T00:43:45;101135.66;;;8.51;100.00
43818;BME280;29868;47.360;18.984;2022-10-13T00:46:11;101143.25;;;8.46;100.00
43818;BME280;29868;47.360;18.984;2022-10-13T00:48:37;101143.16;;;8.43;100.00
43818;BME280;29868;47.360;18.984;2022-10-13T00:51:03;101144.81;;;8.41;100.00
43818;BME280;29868;47.360;18.984;2022-10-13T00:53:31;101134.78;;;8.50;100.00
43818;BME280;29868;47.360;18.984;2022-10-13T00:55:57;101140.25;;;8.58;100.00
43818;BME280;29868;47.360;18.984;2022-10-13T00:58:24;101138.81;;;8.42;100.00
43818;BME280;29868;47.360;18.984;2022-10-13T01:00:51;101139.53;;;8.38;100.00
43818;BME280;29868;47.360;18.984;2022-10-13T01:03:20;101141.28;;;8.39;100.00
43818;BME280;29868;47.360;18.984;2022-10-13T01:05:47;101134.19;;;8.35;100.00
43818;BME280;29868;47.360;18.984;2022-10-13T01:08:15;101140.00;;;8.29;100.00
43818;BME280;29868;47.360;18.984;2022-10-13T01:18:59;101129.00;;;8.35;100.00
43818;BME280;29868;47.360;18.984;2022-10-13T01:21:43;101132.19;;;8.28;100.00
43818;BME280;29868;47.360;18.984;2022-10-13T01:26:55;101128.31;;;8.17;100.00
43818;BME280;29868;47.360;18.984;2022-10-13T01:31:59;101127.50;;;8.18;100.00
43818;BME280;29868;47.360;18.984;2022-10-13T01:34:39;101128.13;;;8.11;100.00
43818;BME280;29868;47.360;18.984;2022-10-13T01:37:22;101127.00;;;8.04;100.00
43818;BME280;29868;47.360;18.984;2022-10-13T01:40:05;101133.44;;;8.15;100.00
43818;BME280;29868;47.360;18.984;2022-10-13T01:43:00;101131.03;;;8.20;100.00
43818;BME280;29868;47.360;18.984;2022-10-13T01:45:34;101132.38;;;8.10;100.00
43818;BME280;29868;47.360;18.984;2022-10-13T01:48:02;101130.44;;;8.04;100.00
43818;BME280;29868;47.360;18.984;2022-10-13T01:50:29;101124.56;;;8.09;100.00
43818;BME280;29868;47.360;18.984;2022-10-13T01:52:59;101118.94;;;8.19;100.00
43818;BME280;29868;47.360;18.984;2022-10-13T01:55:26;101123.84;;;8.13;100.00
43818;BME280;29868;47.360;18.984;2022-10-13T01:57:53;101125.63;;;8.14;100.00
43818;BME280;29868;47.360;18.984;2022-10-13T02:00:20;101117.50;;;8.04;100.00
43818;BME280;29868;47.360;18.984;2022-10-13T02:03:09;101119.41;;;8.09;100.00
43818;BME280;29868;47.360;18.984;2022-10-13T02:05:49;101119.22;;;8.04;100.00
43818;BME280;29868;47.360;18.984;2022-10-13T02:11:13;101118.34;;;7.81;100.00
43818;BME280;29868;47.360;18.984;2022-10-13T02:13:44;101111.28;;;7.77;100.00
43818;BME280;29868;47.360;18.984;2022-10-13T02:16:13;101113.59;;;7.69;100.00
43818;BME280;29868;47.360;18.984;2022-10-13T02:18:40;101117.94;;;7.70;100.00
43818;BME280;29868;47.360;18.984;2022-10-13T02:21:06;101115.09;;;7.64;100.00
43818;BME280;29868;47.360;18.984;2022-10-13T02:23:32;101109.47;;;7.74;100.00
43818;BME280;29868;47.360;18.984;2022-10-13T02:25:58;101112.81;;;7.72;100.00
43818;BME280;29868;47.360;18.984;2022-10-13T02:28:24;101116.91;;;7.67;100.00
43818;BME280;29868;47.360;18.984;2022-10-13T02:30:51;101117.75;;;7.66;100.00
43818;BME280;29868;47.360;18.984;2022-10-13T02:33:16;101113.59;;;7.69;100.00
43818;BME280;29868;47.360;18.984;2022-10-13T02:35:42;101111.91;;;7.71;100.00
43818;BME280;29868;47.360;18.984;2022-10-13T02:38:08;101116.16;;;7.69;100.00
43818;BME280;29868;47.360;18.984;2022-10-13T02:40:33;101111.63;;;7.64;100.00
43818;BME280;29868;47.360;18.984;2022-10-13T02:42:59;101111.44;;;7.59;100.00
43818;BME280;29868;47.360;18.984;2022-10-13T02:45:24;101105.41;;;7.59;100.00
43818;BME280;29868;47.360;18.984;2022-10-13T02:47:50;101102.72;;;7.57;100.00
43818;BME280;29868;47.360;18.984;2022-10-13T02:50:15;101112.19;;;7.56;100.00
43818;BME280;29868;47.360;18.984;2022-10-13T02:52:40;101110.00;;;7.66;100.00
43818;BME280;29868;47.360;18.984;2022-10-13T02:55:06;101111.84;;;7.47;100.00
43818;BME280;29868;47.360;18.984;2022-10-13T02:57:32;101122.88;;;7.43;100.00
43818;BME280;29868;47.360;18.984;2022-10-13T02:59:58;101124.59;;;7.43;100.00
43818;BME280;29868;47.360;18.984;2022-10-13T03:02:25;101116.75;;;7.41;100.00
43818;BME280;29868;47.360;18.984;2022-10-13T03:04:51;101112.06;;;7.53;100.00
43818;BME280;29868;47.360;18.984;2022-10-13T03:07:17;101116.88;;;7.44;100.00
43818;BME280;29868;47.360;18.984;2022-10-13T03:09:42;101118.34;;;7.38;100.00
43818;BME280;29868;47.360;18.984;2022-10-13T03:12:07;101121.69;;;7.35;100.00
43818;BME280;29868;47.360;18.984;2022-10-13T03:14:33;101118.34;;;7.38;100.00
43818;BME280;29868;47.360;18.984;2022-10-13T03:16:58;101115.47;;;7.52;100.00
43818;BME280;29868;47.360;18.984;2022-10-13T03:19:24;101117.38;;;7.56;100.00
43818;BME280;29868;47.360;18.984;2022-10-13T03:21:49;101115.34;;;7.49;100.00
43818;BME280;29868;47.360;18.984;2022-10-13T03:24:14;101120.03;;;7.37;100.00
43818;BME280;29868;47.360;18.984;2022-10-13T03:26:40;101120.44;;;7.46;100.00
43818;BME280;29868;47.360;18.984;2022-10-13T03:29:05;101116.13;;;7.47;100.00
43818;BME280;29868;47.360;18.984;2022-10-13T03:31:30;101121.91;;;7.41;100.00
43818;BME280;29868;47.360;18.984;2022-10-13T03:33:56;101119.03;;;7.34;100.00
43818;BME280;29868;47.360;18.984;2022-10-13T03:36:21;101112.63;;;7.24;100.00
43818;BME280;29868;47.360;18.984;2022-10-13T03:38:46;101115.94;;;7.42;100.00
43818;BME280;29868;47.360;18.984;2022-10-13T03:41:14;101112.63;;;7.24;100.00
43818;BME280;29868;47.360;18.984;2022-10-13T03:43:41;101107.06;;;7.15;100.00
43818;BME280;29868;47.360;18.984;2022-10-13T03:46:07;101105.31;;;7.14;100.00
43818;BME280;29868;47.360;18.984;2022-10-13T03:48:34;101109.06;;;7.22;100.00
43818;BME280;29868;47.360;18.984;2022-10-13T03:51:06;101105.44;;;7.17;100.00
43818;BME280;29868;47.360;18.984;2022-10-13T03:53:32;101105.16;;;7.11;100.00
43818;BME280;29868;47.360;18.984;2022-10-13T03:55:58;101108.44;;;7.06;100.00
43818;BME280;29868;47.360;18.984;2022-10-13T03:58:24;101113.59;;;7.06;100.00
43818;BME280;29868;47.360;18.984;2022-10-13T04:00:52;101108.81;;;7.16;100.00
43818;BME280;29868;47.360;18.984;2022-10-13T04:03:18;101111.28;;;7.13;100.00
43818;BME280;29868;47.360;18.984;2022-10-13T04:05:44;101105.03;;;7.07;100.00
43818;BME280;29868;47.360;18.984;2022-10-13T04:08:09;101110.97;;;7.05;100.00
43818;BME280;29868;47.360;18.984;2022-10-13T04:10:36;101108.31;;;7.03;100.00
43818;BME280;29868;47.360;18.984;2022-10-13T04:13:01;101110.72;;;6.99;100.00
43818;BME280;29868;47.360;18.984;2022-10-13T04:15:27;101109.97;;;7.01;100.00
43818;BME280;29868;47.360;18.984;2022-10-13T04:17:52;101101.66;;;7.09;100.00
43818;BME280;29868;47.360;18.984;2022-10-13T04:20:18;101101.88;;;7.15;100.00
43818;BME280;29868;47.360;18.984;2022-10-13T04:22:43;101103.84;;;6.99;100.00
43818;BME280;29868;47.360;18.984;2022-10-13T04:25:09;101102.78;;;6.94;100.00
43818;BME280;29868;47.360;18.984;2022-10-13T04:27:34;101098.28;;;6.90;100.00
43818;BME280;29868;47.360;18.984;2022-10-13T04:30:04;101095.59;;;6.87;100.00
43818;BME280;29868;47.360;18.984;2022-10-13T04:32:30;101102.63;;;6.91;100.00
43818;BME280;29868;47.360;18.984;2022-10-13T04:34:55;101107.66;;;6.88;100.00
43818;BME280;29868;47.360;18.984;2022-10-13T04:37:20;101105.78;;;6.84;100.00
43818;BME280;29868;47.360;18.984;2022-10-13T04:39:46;101100.66;;;6.86;100.00
43818;BME280;29868;47.360;18.984;2022-10-13T04:42:11;101101.16;;;6.77;100.00
43818;BME280;29868;47.360;18.984;2022-10-13T04:44:37;101104.50;;;6.74;100.00
43818;BME280;29868;47.360;18.984;2022-10-13T04:47:02;101107.88;;;6.73;100.00
43818;BME280;29868;47.360;18.984;2022-10-13T04:49:27;101108.66;;;6.71;100.00
43818;BME280;29868;47.360;18.984;2022-10-13T04:51:53;101110.59;;;6.76;100.00
43818;BME280;29868;47.360;18.984;2022-10-13T04:54:18;101113.00;;;6.72;100.00
43818;BME280;29868;47.360;18.984;2022-10-13T04:56:44;101113.69;;;6.68;100.00
43818;BME280;29868;47.360;18.984;2022-10-13T04:59:10;101111.94;;;6.67;100.00
43818;BME280;29868;47.360;18.984;2022-10-13T05:01:35;101117.16;;;6.68;100.00
43818;BME280;29868;47.360;18.984;2022-10-13T05:04:02;101111.03;;;6.66;100.00
43818;BME280;29868;47.360;18.984;2022-10-13T05:06:33;101109.53;;;6.71;100.00
43818;BME280;29868;47.360;18.984;2022-10-13T05:08:58;101107.00;;;6.73;100.00
43818;BME280;29868;47.360;18.984;2022-10-13T05:11:25;101104.38;;;6.71;100.00
43818;BME280;29868;47.360;18.984;2022-10-13T05:13:51;101102.72;;;6.73;100.00
43818;BME280;29868;47.360;18.984;2022-10-13T05:16:18;101107.44;;;6.82;100.00
43818;BME280;29868;47.360;18.984;2022-10-13T05:18:45;101109.22;;;6.85;100.00
43818;BME280;29868;47.360;18.984;2022-10-13T05:21:26;101113.97;;;6.95;100.00
43818;BME280;29868;47.360;18.984;2022-10-13T05:23:52;101104.38;;;6.92;100.00
43818;BME280;29868;47.360;18.984;2022-10-13T05:26:20;101099.63;;;7.01;100.00
43818;BME280;29868;47.360;18.984;2022-10-13T05:28:45;101102.72;;;7.14;100.00
43818;BME280;29868;47.360;18.984;2022-10-13T05:31:13;101102.16;;;7.21;100.00
43818;BME280;29868;47.360;18.984;2022-10-13T05:33:39;101102.47;;;7.28;100.00
43818;BME280;29868;47.360;18.984;2022-10-13T05:36:08;101110.44;;;7.35;100.00
43818;BME280;29868;47.360;18.984;2022-10-13T05:38:34;101102.22;;;7.43;100.00
43818;BME280;29868;47.360;18.984;2022-10-13T05:41:10;101102.56;;;7.52;100.00
43818;BME280;29868;47.360;18.984;2022-10-13T05:43:37;101103.75;;;7.61;100.00
43818;BME280;29868;47.360;18.984;2022-10-13T05:46:03;101104.25;;;7.73;100.00
43818;BME280;29868;47.360;18.984;2022-10-13T05:48:30;101101.25;;;7.85;100.00
43818;BME280;29868;47.360;18.984;2022-10-13T05:50:58;101113.59;;;7.92;100.00
43818;BME280;29868;47.360;18.984;2022-10-13T05:53:27;101105.63;;;8.10;100.00
43818;BME280;29868;47.360;18.984;2022-10-13T05:55:55;101111.25;;;8.22;100.00
43818;BME280;29868;47.360;18.984;2022-10-13T05:58:23;101114.19;;;8.31;100.00
43818;BME280;29868;47.360;18.984;2022-10-13T06:00:49;101125.19;;;8.48;100.00
43818;BME280;29868;47.360;18.984;2022-10-13T06:03:18;101123.88;;;8.59;100.00
43818;BME280;29868;47.360;18.984;2022-10-13T06:05:46;101120.91;;;8.72;100.00
43818;BME280;29868;47.360;18.984;2022-10-13T06:08:15;101126.50;;;8.85;100.00
43818;BME280;29868;47.360;18.984;2022-10-13T06:10:41;101128.78;;;9.01;100.00
43818;BME280;29868;47.360;18.984;2022-10-13T06:13:08;101125.91;;;9.17;100.00
43818;BME280;29868;47.360;18.984;2022-10-13T06:15:33;101131.72;;;9.37;100.00
43818;BME280;29868;47.360;18.984;2022-10-13T06:17:59;101123.84;;;9.61;100.00
43818;BME280;29868;47.360;18.984;2022-10-13T06:20:24;101130.56;;;9.82;100.00
43818;BME280;29868;47.360;18.984;2022-10-13T06:22:53;101134.41;;;9.94;100.00
43818;BME280;29868;47.360;18.984;2022-10-13T06:25:19;101128.03;;;10.12;100.00
43818;BME280;29868;47.360;18.984;2022-10-13T06:27:44;101137.09;;;10.26;100.00
43818;BME280;29868;47.360;18.984;2022-10-13T06:30:10;101137.50;;;10.38;100.00
43818;BME280;29868;47.360;18.984;2022-10-13T06:32:35;101139.59;;;10.52;100.00
43818;BME280;29868;47.360;18.984;2022-10-13T06:35:01;101139.31;;;10.73;100.00
43818;BME280;29868;47.360;18.984;2022-10-13T06:37:27;101142.31;;;10.88;100.00
43818;BME280;29868;47.360;18.984;2022-10-13T06:39:52;101142.75;;;11.05;100.00
43818;BME280;29868;47.360;18.984;2022-10-13T06:42:18;101144.91;;;11.21;100.00
43818;BME280;29868;47.360;18.984;2022-10-13T06:44:43;101143.69;;;11.41;100.00
43818;BME280;29868;47.360;18.984;2022-10-13T06:47:09;101143.13;;;11.53;100.00
43818;BME280;29868;47.360;18.984;2022-10-13T06:49:34;101138.19;;;11.65;100.00
43818;BME280;29868;47.360;18.984;2022-10-13T06:51:59;101144.50;;;11.75;100.00
43818;BME280;29868;47.360;18.984;2022-10-13T06:54:25;101141.72;;;12.04;100.00
43818;BME280;29868;47.360;18.984;2022-10-13T06:56:50;101134.81;;;12.06;100.00
43818;BME280;29868;47.360;18.984;2022-10-13T06:59:16;101133.72;;;11.96;100.00
43818;BME280;29868;47.360;18.984;2022-10-13T07:01:41;101135.06;;;12.16;100.00
43818;BME280;29868;47.360;18.984;2022-10-13T07:04:07;101140.84;;;12.44;100.00
43818;BME280;29868;47.360;18.984;2022-10-13T07:06:32;101140.28;;;12.60;100.00
43818;BME280;29868;47.360;18.984;2022-10-13T07:08:58;101132.44;;;12.59;100.00
43818;BME280;29868;47.360;18.984;2022-10-13T07:11:26;101132.78;;;12.76;100.00
43818;BME280;29868;47.360;18.984;2022-10-13T07:13:52;101138.13;;;12.83;100.00
43818;BME280;29868;47.360;18.984;2022-10-13T07:16:18;101137.31;;;12.84;100.00
43818;BME280;29868;47.360;18.984;2022-10-13T07:18:45;101138.91;;;12.78;100.00
43818;BME280;29868;47.360;18.984;2022-10-13T07:21:11;101132.53;;;13.10;100.00
43818;BME280;29868;47.360;18.984;2022-10-13T07:23:36;101139.69;;;13.21;100.00
43818;BME280;29868;47.360;18.984;2022-10-13T07:26:06;101138.94;;;13.26;100.00
43818;BME280;29868;47.360;18.984;2022-10-13T07:28:32;101134.84;;;13.42;100.00
43818;BME280;29868;47.360;18.984;2022-10-13T07:30:57;101143.00;;;13.62;100.00
43818;BME280;29868;47.360;18.984;2022-10-13T07:33:22;101145.16;;;13.89;100.00
43818;BME280;29868;47.360;18.984;2022-10-13T07:35:48;101149.63;;;13.98;100.00
43818;BME280;29868;47.360;18.984;2022-10-13T07:38:13;101146.88;;;13.88;100.00
43818;BME280;29868;47.360;18.984;2022-10-13T07:40:39;101147.00;;;13.98;100.00
43818;BME280;29868;47.360;18.984;2022-10-13T07:43:04;101141.81;;;14.01;100.00
43818;BME280;29868;47.360;18.984;2022-10-13T07:45:29;101147.00;;;13.98;100.00
43818;BME280;29868;47.360;18.984;2022-10-13T07:47:55;101145.72;;;14.30;100.00
43818;BME280;29868;47.360;18.984;2022-10-13T07:50:21;101147.56;;;14.39;100.00
43818;BME280;29868;47.360;18.984;2022-10-13T07:52:46;101144.50;;;14.71;100.00
43818;BME280;29868;47.360;18.984;2022-10-13T07:55:12;101148.00;;;14.71;100.00
43818;BME280;29868;47.360;18.984;2022-10-13T07:57:37;101149.81;;;14.78;100.00
43818;BME280;29868;47.360;18.984;2022-10-13T08:00:04;101143.84;;;14.92;100.00
43818;BME280;29868;47.360;18.984;2022-10-13T08:02:30;101147.22;;;14.80;100.00
43818;BME280;29868;47.360;18.984;2022-10-13T08:04:56;101145.53;;;14.88;100.00
43818;BME280;29868;47.360;18.984;2022-10-13T08:07:21;101139.34;;;14.78;100.00
43818;BME280;29868;47.360;18.984;2022-10-13T08:09:46;101134.47;;;15.12;100.00
43818;BME280;29868;47.360;18.984;2022-10-13T08:12:12;101125.81;;;15.22;100.00
43818;BME280;29868;47.360;18.984;2022-10-13T08:14:37;101136.47;;;15.44;100.00
43818;BME280;29868;47.360;18.984;2022-10-13T08:17:03;101133.75;;;15.27;100.00
43818;BME280;29868;47.360;18.984;2022-10-13T08:19:28;101125.22;;;15.55;100.00
43818;BME280;29868;47.360;18.984;2022-10-13T08:21:53;101121.00;;;15.68;100.00
43818;BME280;29868;47.360;18.984;2022-10-13T08:24:19;101125.38;;;15.69;100.00
43818;BME280;29868;47.360;18.984;2022-10-13T08:26:47;101123.53;;;15.62;100.00
43818;BME280;29868;47.360;18.984;2022-10-13T08:29:13;101121.06;;;15.77;100.00
43818;BME280;29868;47.360;18.984;2022-10-13T08:31:40;101120.25;;;15.89;100.00
43818;BME280;29868;47.360;18.984;2022-10-13T08:34:06;101124.72;;;16.02;100.00
43818;BME280;29868;47.360;18.984;2022-10-13T08:36:32;101123.00;;;16.12;100.00
43818;BME280;29868;47.360;18.984;2022-10-13T08:38:58;101122.97;;;16.09;100.00
43818;BME280;29868;47.360;18.984;2022-10-13T08:41:26;101127.38;;;16.10;100.00
43818;BME280;29868;47.360;18.984;2022-10-13T08:49:19;101113.50;;;16.39;100.00
43818;BME280;29868;47.360;18.984;2022-10-13T08:51:45;101116.19;;;16.54;100.00
43818;BME280;29868;47.360;18.984;2022-10-13T08:54:14;101116.25;;;16.71;100.00
43818;BME280;29868;47.360;18.984;2022-10-13T08:56:41;101115.34;;;16.72;100.00
43818;BME280;29868;47.360;18.984;2022-10-13T08:59:12;101113.69;;;17.03;100.00
43818;BME280;29868;47.360;18.984;2022-10-13T09:01:39;101112.81;;;17.04;100.00
43818;BME280;29868;47.360;18.984;2022-10-13T09:04:31;101113.56;;;16.59;100.00
43818;BME280;29868;47.360;18.984;2022-10-13T09:07:11;101106.56;;;16.58;100.00
43818;BME280;29868;47.360;18.984;2022-10-13T09:09:38;101111.03;;;16.82;100.00
43818;BME280;29868;47.360;18.984;2022-10-13T09:12:04;101114.56;;;17.11;100.00
43818;BME280;29868;47.360;18.984;2022-10-13T09:14:35;101113.69;;;17.05;100.00
43818;BME280;29868;47.360;18.984;2022-10-13T09:17:21;101102.34;;;17.10;100.00
43818;BME280;29868;47.360;18.984;2022-10-13T09:20:25;101107.59;;;17.25;100.00
43818;BME280;29868;47.360;18.984;2022-10-13T09:23:08;101103.22;;;17.32;100.00
43818;BME280;29868;47.360;18.984;2022-10-13T09:25:48;101097.97;;;17.21;100.00
43818;BME280;29868;47.360;18.984;2022-10-13T09:28:28;101097.06;;;16.83;100.00
43818;BME280;29868;47.360;18.984;2022-10-13T09:31:23;101100.56;;;17.31;100.00
43818;BME280;29868;47.360;18.984;2022-10-13T09:33:55;101102.34;;;17.41;100.00
43818;BME280;29868;47.360;18.984;2022-10-13T09:36:21;101108.47;;;17.44;100.00
43818;BME280;29868;47.360;18.984;2022-10-13T09:39:12;101096.16;;;17.65;100.00
43818;BME280;29868;47.360;18.984;2022-10-13T09:41:39;101108.44;;;17.55;100.00
43818;BME280;29868;47.360;18.984;2022-10-13T09:44:18;101092.66;;;17.64;100.00
43818;BME280;29868;47.360;18.984;2022-10-13T09:46:53;101088.34;;;17.36;100.00
43818;BME280;29868;47.360;18.984;2022-10-13T09:51:50;101087.41;;;17.54;100.00
43818;BME280;29868;47.360;18.984;2022-10-13T09:57:02;101089.16;;;17.74;100.00
43818;BME280;29868;47.360;18.984;2022-10-13T09:59:36;101091.81;;;17.78;100.00
43818;BME280;29868;47.360;18.984;2022-10-13T10:04:41;101084.75;;;17.95;100.00
43818;BME280;29868;47.360;18.984;2022-10-13T10:07:14;101075.94;;;18.10;100.00
43818;BME280;29868;47.360;18.984;2022-10-13T10:09:45;101074.16;;;18.13;100.00
43818;BME280;29868;47.360;18.984;2022-10-13T10:12:15;101078.50;;;18.20;100.00
43818;BME280;29868;47.360;18.984;2022-10-13T10:14:42;101074.94;;;18.35;100.00
43818;BME280;29868;47.360;18.984;2022-10-13T10:17:22;101066.03;;;18.64;100.00
43818;BME280;29868;47.360;18.984;2022-10-13T10:25:25;101049.25;;;18.82;100.00
43818;BME280;29868;47.360;18.984;2022-10-13T10:30:34;101059.84;;;18.76;100.00
43818;BME280;29868;47.360;18.984;2022-10-13T10:33:10;101052.88;;;18.64;100.00
43818;BME280;29868;47.360;18.984;2022-10-13T10:36:05;101053.72;;;18.69;100.00
43818;BME280;29868;47.360;18.984;2022-10-13T10:38:44;101046.50;;;18.97;100.00
43818;BME280;29868;47.360;18.984;2022-10-13T10:44:09;101046.38;;;19.12;100.00
43818;BME280;29868;47.360;18.984;2022-10-13T10:46:41;101035.75;;;19.23;100.00
43818;BME280;29868;47.360;18.984;2022-10-13T10:49:30;101034.75;;;19.35;100.00
43818;BME280;29868;47.360;18.984;2022-10-13T10:51:57;101034.94;;;19.15;100.00
43818;BME280;29868;47.360;18.984;2022-10-13T10:54:50;101025.00;;;19.44;100.00
43818;BME280;29868;47.360;18.984;2022-10-13T11:00:05;101016.19;;;19.49;100.00
43818;BME280;29868;47.360;18.984;2022-10-13T11:05:08;101008.63;;;19.13;100.00
43818;BME280;29868;47.360;18.984;2022-10-13T11:10:03;101000.50;;;19.35;100.00
43818;BME280;29868;47.360;18.984;2022-10-13T11:15:24;100996.19;;;19.28;100.00
43818;BME280;29868;47.360;18.984;2022-10-13T11:17:51;100993.63;;;19.20;100.00
43818;BME280;29868;47.360;18.984;2022-10-13T11:41:38;100973.63;;;19.85;100.00
43818;BME280;29868;47.360;18.984;2022-10-13T11:44:20;100972.59;;;19.97;100.00
43818;BME280;29868;47.360;18.984;2022-10-13T11:50:16;100960.28;;;19.96;100.00
43818;BME280;29868;47.360;18.984;2022-10-13T11:55:49;100954.25;;;19.88;100.00
43818;BME280;29868;47.360;18.984;2022-10-13T11:58:33;100944.59;;;19.87;100.00
43818;BME280;29868;47.360;18.984;2022-10-13T12:01:09;100944.84;;;19.70;100.00
43818;BME280;29868;47.360;18.984;2022-10-13T12:03:44;100940.31;;;19.78;100.00
43818;BME280;29868;47.360;18.984;2022-10-13T12:08:49;100943.13;;;19.64;100.00
43818;BME280;29868;47.360;18.984;2022-10-13T12:11:35;100939.47;;;19.78;100.00
43818;BME280;29868;47.360;18.984;2022-10-13T12:14:05;100943.06;;;19.71;100.00
43818;BME280;29868;47.360;18.984;2022-10-13T12:16:31;100938.66;;;19.69;100.00
43818;BME280;29868;47.360;18.984;2022-10-13T12:19:08;100937.13;;;19.49;100.00
43818;BME280;29868;47.360;18.984;2022-10-13T12:21:47;100928.22;;;19.62;100.00
43818;BME280;29868;47.360;18.984;2022-10-13T12:24:15;100930.66;;;19.79;100.00
43818;BME280;29868;47.360;18.984;2022-10-13T12:26:40;100921.13;;;19.67;100.00
43818;BME280;29868;47.360;18.984;2022-10-13T12:29:11;100918.41;;;19.75;100.00
43818;BME280;29868;47.360;18.984;2022-10-13T12:31:44;100922.06;;;19.63;100.00
43818;BME280;29868;47.360;18.984;2022-10-13T12:37:02;100911.41;;;19.72;100.00
43818;BME280;29868;47.360;18.984;2022-10-13T12:39:31;100906.88;;;19.80;100.00
43818;BME280;29868;47.360;18.984;2022-10-13T12:41:59;100914.63;;;19.94;100.00
43818;BME280;29868;47.360;18.984;2022-10-13T12:44:30;100906.13;;;19.74;100.00
43818;BME280;29868;47.360;18.984;2022-10-13T12:46:58;100897.19;;;19.84;100.00
43818;BME280;29868;47.360;18.984;2022-10-13T12:49:32;100908.34;;;20.04;94.96
43818;BME280;29868;47.360;18.984;2022-10-13T12:52:20;100905.78;;;19.98;90.75
43818;BME280;29868;47.360;18.984;2022-10-13T12:54:53;100900.53;;;19.95;89.49
43818;BME280;29868;47.360;18.984;2022-10-13T12:57:20;100893.16;;;20.18;90.10
43818;BME280;29868;47.360;18.984;2022-10-13T12:59:46;100898.81;;;19.92;89.17
43818;BME280;29868;47.360;18.984;2022-10-13T13:02:23;100892.78;;;19.84;92.92
43818;BME280;29868;47.360;18.984;2022-10-13T13:04:49;100889.16;;;19.93;93.08
43818;BME280;29868;47.360;18.984;2022-10-13T13:12:32;100888.50;;;19.76;91.00
43818;BME280;29868;47.360;18.984;2022-10-13T13:14:57;100884.03;;;19.81;94.09
43818;BME280;29868;47.360;18.984;2022-10-13T13:17:40;100875.88;;;19.99;93.98
43818;BME280;29868;47.360;18.984;2022-10-13T13:20:28;100876.88;;;19.90;90.31
43818;BME280;29868;47.360;18.984;2022-10-13T13:22:54;100880.91;;;20.14;90.94
43818;BME280;29868;47.360;18.984;2022-10-13T13:25:20;100877.31;;;20.18;90.37
43818;BME280;29868;47.360;18.984;2022-10-13T13:27:46;100869.25;;;20.29;89.57
43818;BME280;29868;47.360;18.984;2022-10-13T13:30:14;100871.84;;;20.32;91.45
43818;BME280;29868;47.360;18.984;2022-10-13T13:32:40;100869.03;;;20.41;90.66
43818;BME280;29868;47.360;18.984;2022-10-13T13:35:07;100865.72;;;20.29;91.11
43818;BME280;29868;47.360;18.984;2022-10-13T13:37:36;100866.59;;;20.31;89.50
43818;BME280;29868;47.360;18.984;2022-10-13T13:40:03;100866.59;;;20.31;89.06
43818;BME280;29868;47.360;18.984;2022-10-13T13:42:29;100864.09;;;20.22;88.25
43818;BME280;29868;47.360;18.984;2022-10-13T13:44:55;100861.72;;;20.05;88.59
43818;BME280;29868;47.360;18.984;2022-10-13T13:47:22;100863.53;;;20.01;91.30
43818;BME280;29868;47.360;18.984;2022-10-13T13:49:50;100862.56;;;20.08;90.26
43818;BME280;29868;47.360;18.984;2022-10-13T13:52:17;100855.63;;;20.01;92.17
43818;BME280;29868;47.360;18.984;2022-10-13T13:54:43;100861.72;;;20.03;91.35
43818;BME280;29868;47.360;18.984;2022-10-13T13:57:10;100860.19;;;19.90;90.55
43818;BME280;29868;47.360;18.984;2022-10-13T13:59:37;100861.25;;;19.77;92.07
43818;BME280;29868;47.360;18.984;2022-10-13T14:02:03;100860.50;;;19.70;91.68
43818;BME280;29868;47.360;18.984;2022-10-13T14:04:29;100851.63;;;19.73;92.19
43818;BME280;29868;47.360;18.984;2022-10-13T14:06:54;100849.94;;;19.68;92.27
43818;BME280;29868;47.360;18.984;2022-10-13T14:09:19;100856.13;;;19.67;92.77
43818;BME280;29868;47.360;18.984;2022-10-13T14:11:45;100852.56;;;19.70;91.43
43818;BME280;29868;47.360;18.984;2022-10-13T14:14:10;100849.91;;;19.72;89.70
43818;BME280;29868;47.360;18.984;2022-10-13T14:16:35;100844.88;;;19.52;93.45